sensor_id;sensor_type;location;lat;lon;timestamp;temperature;humidity
4655;DHT22;2340;47.814;9.798;2023-02-22T00:00:55;4.30;99.90
4655;DHT22;2340;47.814;9.798;2023-02-22T00:03:27;4.20;99.90
4655;DHT22;2340;47.814;9.798;2023-02-22T00:06:03;4.20;99.90
4655;DHT22;2340;47.814;9.798;2023-02-22T00:08:30;4.20;99.90
4655;DHT22;2340;47.814;9.798;2023-02-22T00:10:57;4.30;99.90
4655;DHT22;2340;47.814;9.798;2023-02-22T00:13:22;4.40;99.90
4655;DHT22;2340;47.814;9.798;2023-02-22T00:15:48;4.40;99.90
4655;DHT22;2340;47.814;9.798;2023-02-22T00:18:14;4.40;99.90
4655;DHT22;2340;47.814;9.798;2023-02-22T00:20:40;4.40;99.90
4655;DHT22;2340;47.814;9.798;2023-02-22T00:23:07;4.40;99.90
4655;DHT22;2340;47.814;9.798;2023-02-22T00:25:33;4.40;99.90
4655;DHT22;2340;47.814;9.798;2023-02-22T00:27:59;4.50;99.90
4655;DHT22;2340;47.814;9.798;2023-02-22T00:30:25;4.40;99.90
4655;DHT22;2340;47.814;9.798;2023-02-22T00:32:52;4.40;99.90
4655;DHT22;2340;47.814;9.798;2023-02-22T00:35:19;4.30;99.90
4655;DHT22;2340;47.814;9.798;2023-02-22T00:37:51;4.30;99.90
4655;DHT22;2340;47.814;9.798;2023-02-22T00:40:19;4.20;99.90
4655;DHT22;2340;47.814;9.798;2023-02-22T00:42:45;4.20;99.90
4655;DHT22;2340;47.814;9.798;2023-02-22T00:45:11;4.20;99.90
4655;DHT22;2340;47.814;9.798;2023-02-22T00:47:37;4.20;99.90
4655;DHT22;2340;47.814;9.798;2023-02-22T00:50:02;4.10;99.90
4655;DHT22;2340;47.814;9.798;2023-02-22T00:52:28;4.00;99.90
4655;DHT22;2340;47.814;9.798;2023-02-22T00:54:53;3.90;99.90
4655;DHT22;2340;47.814;9.798;2023-02-22T00:57:20;3.90;99.90
4655;DHT22;2340;47.814;9.798;2023-02-22T00:59:45;4.00;99.90
4655;DHT22;2340;47.814;9.798;2023-02-22T01:02:10;3.90;99.90
4655;DHT22;2340;47.814;9.798;2023-02-22T01:04:36;3.90;99.90
4655;DHT22;2340;47.814;9.798;2023-02-22T01:07:02;3.90;99.90
4655;DHT22;2340;47.814;9.798;2023-02-22T01:09:27;3.90;99.90
4655;DHT22;2340;47.814;9.798;2023-02-22T01:11:53;3.90;99.90
4655;DHT22;2340;47.814;9.798;2023-02-22T01:14:22;3.90;99.90
4655;DHT22;2340;47.814;9.798;2023-02-22T01:16:49;3.90;99.90
4655;DHT22;2340;47.814;9.798;2023-02-22T01:19:15;3.90;99.90
4655;DHT22;2340;47.814;9.798;2023-02-22T01:21:41;3.90;99.90
4655;DHT22;2340;47.814;9.798;2023-02-22T01:24:07;3.80;99.90
4655;DHT22;2340;47.814;9.798;2023-02-22T01:26:33;3.80;99.90
4655;DHT22;2340;47.814;9.798;2023-02-22T01:28:58;3.80;99.90
4655;DHT22;2340;47.814;9.798;2023-02-22T01:31:24;3.90;99.90
4655;DHT22;2340;47.814;9.798;2023-02-22T01:33:49;3.90;99.90
4655;DHT22;2340;47.814;9.798;2023-02-22T01:36:15;3.90;99.90
4655;DHT22;2340;47.814;9.798;2023-02-22T01:38:43;3.90;99.90
4655;DHT22;2340;47.814;9.798;2023-02-22T01:41:09;3.80;99.90
4655;DHT22;2340;47.814;9.798;2023-02-22T01:43:35;3.90;99.90
4655;DHT22;2340;47.814;9.798;2023-02-22T01:48:27;3.90;99.90
4655;DHT22;2340;47.814;9.798;2023-02-22T01:51:01;3.80;99.90
4655;DHT22;2340;47.814;9.798;2023-02-22T01:53:33;3.80;99.90
4655;DHT22;2340;47.814;9.798;2023-02-22T01:56:00;3.80;99.90
4655;DHT22;2340;47.814;9.798;2023-02-22T01:58:27;3.80;99.90
4655;DHT22;2340;47.814;9.798;2023-02-22T02:00:53;3.80;99.90
4655;DHT22;2340;47.814;9.798;2023-02-22T02:03:23;3.80;99.90
4655;DHT22;2340;47.814;9.798;2023-02-22T02:05:51;3.80;99.90
4655;DHT22;2340;47.814;9.798;2023-02-22T02:11:03;3.70;99.90
4655;DHT22;2340;47.814;9.798;2023-02-22T02:13:29;3.60;99.90
4655;DHT22;2340;47.814;9.798;2023-02-22T02:15:55;3.50;99.90
4655;DHT22;2340;47.814;9.798;2023-02-22T02:18:20;3.50;99.90
4655;DHT22;2340;47.814;9.798;2023-02-22T02:33:58;3.30;99.90
4655;DHT22;2340;47.814;9.798;2023-02-22T02:36:31;3.20;99.90
4655;DHT22;2340;47.814;9.798;2023-02-22T02:39:03;3.20;99.90
4655;DHT22;2340;47.814;9.798;2023-02-22T02:41:32;3.10;99.90
4655;DHT22;2340;47.814;9.798;2023-02-22T02:44:44;3.20;99.90
4655;DHT22;2340;47.814;9.798;2023-02-22T02:49:50;3.10;99.90
4655;DHT22;2340;47.814;9.798;2023-02-22T02:52:17;3.10;99.90
4655;DHT22;2340;47.814;9.798;2023-02-22T02:54:43;3.00;99.90
4655;DHT22;2340;47.814;9.798;2023-02-22T02:57:10;3.00;99.90
4655;DHT22;2340;47.814;9.798;2023-02-22T02:59:36;3.10;99.90
4655;DHT22;2340;47.814;9.798;2023-02-22T03:06:59;3.00;99.90
4655;DHT22;2340;47.814;9.798;2023-02-22T03:14:52;2.90;99.90
4655;DHT22;2340;47.814;9.798;2023-02-22T03:17:27;2.80;99.90
4655;DHT22;2340;47.814;9.798;2023-02-22T03:20:00;2.90;99.90
4655;DHT22;2340;47.814;9.798;2023-02-22T03:25:23;2.80;99.90
4655;DHT22;2340;47.814;9.798;2023-02-22T03:27:52;2.80;99.90
4655;DHT22;2340;47.814;9.798;2023-02-22T03:30:26;2.70;99.90
4655;DHT22;2340;47.814;9.798;2023-02-22T03:32:56;2.70;99.90
4655;DHT22;2340;47.814;9.798;2023-02-22T03:35:24;2.60;99.90
4655;DHT22;2340;47.814;9.798;2023-02-22T03:37:53;2.60;99.90
4655;DHT22;2340;47.814;9.798;2023-02-22T03:40:21;2.60;99.90
4655;DHT22;2340;47.814;9.798;2023-02-22T03:43:02;2.60;99.90
4655;DHT22;2340;47.814;9.798;2023-02-22T03:45:29;2.60;99.90
4655;DHT22;2340;47.814;9.798;2023-02-22T03:48:01;2.50;99.90
4655;DHT22;2340;47.814;9.798;2023-02-22T03:50:28;2.50;99.90
4655;DHT22;2340;47.814;9.798;2023-02-22T03:52:55;2.60;99.90
4655;DHT22;2340;47.814;9.798;2023-02-22T03:55:23;2.60;99.90
4655;DHT22;2340;47.814;9.798;2023-02-22T03:57:49;2.50;99.90
4655;DHT22;2340;47.814;9.798;2023-02-22T04:00:19;2.40;99.90
4655;DHT22;2340;47.814;9.798;2023-02-22T04:02:45;2.30;99.90
4655;DHT22;2340;47.814;9.798;2023-02-22T04:05:11;2.30;99.90
4655;DHT22;2340;47.814;9.798;2023-02-22T04:07:38;2.30;99.90
4655;DHT22;2340;47.814;9.798;2023-02-22T04:10:04;2.30;99.90
4655;DHT22;2340;47.814;9.798;2023-02-22T04:12:35;2.30;99.90
4655;DHT22;2340;47.814;9.798;2023-02-22T04:15:02;2.30;99.90
4655;DHT22;2340;47.814;9.798;2023-02-22T04:17:27;2.30;99.90
4655;DHT22;2340;47.814;9.798;2023-02-22T04:19:53;2.30;99.90
4655;DHT22;2340;47.814;9.798;2023-02-22T04:22:19;2.20;99.90
4655;DHT22;2340;47.814;9.798;2023-02-22T04:24:44;2.30;99.90
4655;DHT22;2340;47.814;9.798;2023-02-22T04:27:10;2.30;99.90
4655;DHT22;2340;47.814;9.798;2023-02-22T04:29:35;2.40;99.90
4655;DHT22;2340;47.814;9.798;2023-02-22T04:32:02;2.30;99.90
4655;DHT22;2340;47.814;9.798;2023-02-22T04:34:28;2.30;99.90
4655;DHT22;2340;47.814;9.798;2023-02-22T04:36:54;2.20;99.90
4655;DHT22;2340;47.814;9.798;2023-02-22T04:39:19;2.20;99.90
4655;DHT22;2340;47.814;9.798;2023-02-22T04:41:45;2.20;99.90
4655;DHT22;2340;47.814;9.798;2023-02-22T04:44:12;2.20;99.90
4655;DHT22;2340;47.814;9.798;2023-02-22T04:46:37;2.20;99.90
4655;DHT22;2340;47.814;9.798;2023-02-22T04:49:03;2.10;99.90
4655;DHT22;2340;47.814;9.798;2023-02-22T04:51:28;2.20;99.90
4655;DHT22;2340;47.814;9.798;2023-02-22T04:53:54;2.20;99.90
4655;DHT22;2340;47.814;9.798;2023-02-22T04:56:19;2.20;99.90
4655;DHT22;2340;47.814;9.798;2023-02-22T04:58:45;2.10;99.90
4655;DHT22;2340;47.814;9.798;2023-02-22T05:01:10;2.10;99.90
4655;DHT22;2340;47.814;9.798;2023-02-22T05:03:36;2.00;99.90
4655;DHT22;2340;47.814;9.798;2023-02-22T05:06:02;2.00;99.90
4655;DHT22;2340;47.814;9.798;2023-02-22T05:08:27;2.00;99.90
4655;DHT22;2340;47.814;9.798;2023-02-22T05:10:54;2.00;99.90
4655;DHT22;2340;47.814;9.798;2023-02-22T05:13:19;2.10;99.90
4655;DHT22;2340;47.814;9.798;2023-02-22T05:15:45;2.10;99.90
4655;DHT22;2340;47.814;9.798;2023-02-22T05:18:10;2.10;99.90
4655;DHT22;2340;47.814;9.798;2023-02-22T05:20:36;2.10;99.90
4655;DHT22;2340;47.814;9.798;2023-02-22T05:23:01;2.10;99.90
4655;DHT22;2340;47.814;9.798;2023-02-22T05:25:27;2.10;99.90
4655;DHT22;2340;47.814;9.798;2023-02-22T05:27:54;2.10;99.90
4655;DHT22;2340;47.814;9.798;2023-02-22T05:30:21;2.00;99.90
4655;DHT22;2340;47.814;9.798;2023-02-22T05:32:49;2.00;99.90
4655;DHT22;2340;47.814;9.798;2023-02-22T05:35:15;2.00;99.90
4655;DHT22;2340;47.814;9.798;2023-02-22T05:37:40;2.00;99.90
4655;DHT22;2340;47.814;9.798;2023-02-22T05:40:06;2.00;99.90
4655;DHT22;2340;47.814;9.798;2023-02-22T05:42:32;2.10;99.90
4655;DHT22;2340;47.814;9.798;2023-02-22T05:44:57;2.00;99.90
4655;DHT22;2340;47.814;9.798;2023-02-22T05:47:24;2.30;99.90
4655;DHT22;2340;47.814;9.798;2023-02-22T05:49:50;2.30;99.90
4655;DHT22;2340;47.814;9.798;2023-02-22T05:52:15;2.30;99.90
4655;DHT22;2340;47.814;9.798;2023-02-22T05:54:41;2.40;99.90
4655;DHT22;2340;47.814;9.798;2023-02-22T05:57:06;2.30;99.90
4655;DHT22;2340;47.814;9.798;2023-02-22T05:59:32;2.20;99.90
4655;DHT22;2340;47.814;9.798;2023-02-22T06:01:57;2.20;99.90
4655;DHT22;2340;47.814;9.798;2023-02-22T06:04:23;2.20;99.90
4655;DHT22;2340;47.814;9.798;2023-02-22T06:06:48;2.20;99.90
4655;DHT22;2340;47.814;9.798;2023-02-22T06:09:14;2.20;99.90
4655;DHT22;2340;47.814;9.798;2023-02-22T06:11:39;2.20;99.90
4655;DHT22;2340;47.814;9.798;2023-02-22T06:14:05;2.10;99.90
4655;DHT22;2340;47.814;9.798;2023-02-22T06:16:30;2.10;99.90
4655;DHT22;2340;47.814;9.798;2023-02-22T06:18:56;2.10;99.90
4655;DHT22;2340;47.814;9.798;2023-02-22T06:21:22;2.10;99.90
4655;DHT22;2340;47.814;9.798;2023-02-22T06:23:47;2.10;99.90
4655;DHT22;2340;47.814;9.798;2023-02-22T06:26:16;2.10;99.90
4655;DHT22;2340;47.814;9.798;2023-02-22T06:28:42;2.10;99.90
4655;DHT22;2340;47.814;9.798;2023-02-22T06:31:07;2.10;99.90
4655;DHT22;2340;47.814;9.798;2023-02-22T06:33:33;2.10;99.90
4655;DHT22;2340;47.814;9.798;2023-02-22T06:35:58;2.10;99.90
4655;DHT22;2340;47.814;9.798;2023-02-22T06:38:24;2.10;99.90
4655;DHT22;2340;47.814;9.798;2023-02-22T06:40:50;2.10;99.90
4655;DHT22;2340;47.814;9.798;2023-02-22T06:43:16;2.10;99.90
4655;DHT22;2340;47.814;9.798;2023-02-22T06:45:41;2.20;99.90
4655;DHT22;2340;47.814;9.798;2023-02-22T06:48:07;2.20;99.90
4655;DHT22;2340;47.814;9.798;2023-02-22T06:50:33;2.30;99.90
4655;DHT22;2340;47.814;9.798;2023-02-22T06:52:59;2.40;99.90
4655;DHT22;2340;47.814;9.798;2023-02-22T06:55:25;2.50;99.90
4655;DHT22;2340;47.814;9.798;2023-02-22T06:57:51;2.50;99.90
4655;DHT22;2340;47.814;9.798;2023-02-22T07:00:18;2.60;99.90
4655;DHT22;2340;47.814;9.798;2023-02-22T07:02:44;2.70;99.90
4655;DHT22;2340;47.814;9.798;2023-02-22T07:05:10;2.80;99.90
4655;DHT22;2340;47.814;9.798;2023-02-22T07:07:37;2.90;99.90
4655;DHT22;2340;47.814;9.798;2023-02-22T07:10:03;2.90;99.90
4655;DHT22;2340;47.814;9.798;2023-02-22T07:12:29;3.00;99.90
4655;DHT22;2340;47.814;9.798;2023-02-22T07:14:54;3.00;99.90
4655;DHT22;2340;47.814;9.798;2023-02-22T07:17:20;3.10;99.90
4655;DHT22;2340;47.814;9.798;2023-02-22T07:19:46;3.10;99.90
4655;DHT22;2340;47.814;9.798;2023-02-22T07:22:11;3.20;99.90
4655;DHT22;2340;47.814;9.798;2023-02-22T07:24:37;3.20;99.90
4655;DHT22;2340;47.814;9.798;2023-02-22T07:27:04;3.20;99.90
4655;DHT22;2340;47.814;9.798;2023-02-22T07:29:30;3.30;99.90
4655;DHT22;2340;47.814;9.798;2023-02-22T07:31:56;3.30;99.90
4655;DHT22;2340;47.814;9.798;2023-02-22T07:34:22;3.30;99.90
4655;DHT22;2340;47.814;9.798;2023-02-22T07:36:47;3.40;99.90
4655;DHT22;2340;47.814;9.798;2023-02-22T07:39:13;3.40;99.90
4655;DHT22;2340;47.814;9.798;2023-02-22T07:41:38;3.50;99.90
4655;DHT22;2340;47.814;9.798;2023-02-22T07:44:04;3.50;99.90
4655;DHT22;2340;47.814;9.798;2023-02-22T07:46:30;3.50;99.90
4655;DHT22;2340;47.814;9.798;2023-02-22T07:48:55;3.60;99.90
4655;DHT22;2340;47.814;9.798;2023-02-22T07:51:21;3.60;99.90
4655;DHT22;2340;47.814;9.798;2023-02-22T07:53:46;3.70;99.90
4655;DHT22;2340;47.814;9.798;2023-02-22T07:56:12;3.80;99.90
4655;DHT22;2340;47.814;9.798;2023-02-22T07:58:38;3.90;99.90
4655;DHT22;2340;47.814;9.798;2023-02-22T08:01:03;3.90;99.90
4655;DHT22;2340;47.814;9.798;2023-02-22T08:03:32;4.00;99.90
4655;DHT22;2340;47.814;9.798;2023-02-22T08:06:00;4.10;99.90
4655;DHT22;2340;47.814;9.798;2023-02-22T08:08:27;4.20;99.90
4655;DHT22;2340;47.814;9.798;2023-02-22T08:10:53;4.30;99.90
4655;DHT22;2340;47.814;9.798;2023-02-22T08:13:18;4.30;99.90
4655;DHT22;2340;47.814;9.798;2023-02-22T08:15:44;4.40;99.90
4655;DHT22;2340;47.814;9.798;2023-02-22T08:18:12;4.50;99.90
4655;DHT22;2340;47.814;9.798;2023-02-22T08:20:39;4.50;99.90
4655;DHT22;2340;47.814;9.798;2023-02-22T08:23:05;4.60;99.90
4655;DHT22;2340;47.814;9.798;2023-02-22T08:25:31;4.70;99.90
4655;DHT22;2340;47.814;9.798;2023-02-22T08:28:00;4.80;99.90
4655;DHT22;2340;47.814;9.798;2023-02-22T08:30:27;4.90;99.90
4655;DHT22;2340;47.814;9.798;2023-02-22T08:32:53;4.90;99.90
4655;DHT22;2340;47.814;9.798;2023-02-22T08:35:19;5.10;99.90
4655;DHT22;2340;47.814;9.798;2023-02-22T08:37:47;5.20;99.90
4655;DHT22;2340;47.814;9.798;2023-02-22T08:40:14;5.30;99.90
4655;DHT22;2340;47.814;9.798;2023-02-22T08:42:41;5.50;99.90
4655;DHT22;2340;47.814;9.798;2023-02-22T08:45:08;5.70;99.90
4655;DHT22;2340;47.814;9.798;2023-02-22T08:47:34;5.80;99.90
4655;DHT22;2340;47.814;9.798;2023-02-22T08:50:00;5.90;99.90
4655;DHT22;2340;47.814;9.798;2023-02-22T08:52:25;6.00;99.90
4655;DHT22;2340;47.814;9.798;2023-02-22T08:54:51;6.10;99.90
4655;DHT22;2340;47.814;9.798;2023-02-22T08:57:16;6.20;99.90
4655;DHT22;2340;47.814;9.798;2023-02-22T08:59:42;6.40;99.90
4655;DHT22;2340;47.814;9.798;2023-02-22T09:02:14;6.40;99.90
4655;DHT22;2340;47.814;9.798;2023-02-22T09:04:40;6.50;99.90
4655;DHT22;2340;47.814;9.798;2023-02-22T09:07:05;6.60;99.90
4655;DHT22;2340;47.814;9.798;2023-02-22T09:09:31;6.70;99.90
4655;DHT22;2340;47.814;9.798;2023-02-22T09:11:56;6.90;99.90
4655;DHT22;2340;47.814;9.798;2023-02-22T09:14:22;7.00;99.90
4655;DHT22;2340;47.814;9.798;2023-02-22T09:16:47;7.10;99.90
4655;DHT22;2340;47.814;9.798;2023-02-22T09:19:13;7.20;99.90
4655;DHT22;2340;47.814;9.798;2023-02-22T09:21:38;7.40;99.90
4655;DHT22;2340;47.814;9.798;2023-02-22T09:24:05;7.50;99.90
4655;DHT22;2340;47.814;9.798;2023-02-22T09:26:36;7.60;99.90
4655;DHT22;2340;47.814;9.798;2023-02-22T09:29:06;7.80;99.90
4655;DHT22;2340;47.814;9.798;2023-02-22T09:31:34;7.90;99.90
4655;DHT22;2340;47.814;9.798;2023-02-22T09:34:01;8.00;99.90
4655;DHT22;2340;47.814;9.798;2023-02-22T09:36:26;8.20;99.90
4655;DHT22;2340;47.814;9.798;2023-02-22T09:38:52;8.30;99.90
4655;DHT22;2340;47.814;9.798;2023-02-22T09:41:19;8.30;99.90
4655;DHT22;2340;47.814;9.798;2023-02-22T09:43:53;8.40;99.90
4655;DHT22;2340;47.814;9.798;2023-02-22T09:46:36;8.50;99.90
4655;DHT22;2340;47.814;9.798;2023-02-22T09:54:17;8.70;99.90
4655;DHT22;2340;47.814;9.798;2023-02-22T09:56:44;8.80;99.90
4655;DHT22;2340;47.814;9.798;2023-02-22T09:59:11;8.90;99.90
4655;DHT22;2340;47.814;9.798;2023-02-22T10:01:40;8.90;99.90
4655;DHT22;2340;47.814;9.798;2023-02-22T10:04:23;9.00;99.90
4655;DHT22;2340;47.814;9.798;2023-02-22T10:09:21;9.20;99.90
4655;DHT22;2340;47.814;9.798;2023-02-22T10:26:40;9.70;99.90
4655;DHT22;2340;47.814;9.798;2023-02-22T10:29:49;9.80;99.90
4655;DHT22;2340;47.814;9.798;2023-02-22T10:31:56;9.90;99.90
4655;DHT22;2340;47.814;9.798;2023-02-22T10:34:23;10.00;99.90
4655;DHT22;2340;47.814;9.798;2023-02-22T10:36:50;10.10;99.90
4655;DHT22;2340;47.814;9.798;2023-02-22T10:41:47;10.30;99.90
4655;DHT22;2340;47.814;9.798;2023-02-22T10:44:13;10.40;99.90
4655;DHT22;2340;47.814;9.798;2023-02-22T10:46:39;10.60;99.90
4655;DHT22;2340;47.814;9.798;2023-02-22T10:49:06;10.70;99.90
4655;DHT22;2340;47.814;9.798;2023-02-22T10:51:32;10.90;99.90
4655;DHT22;2340;47.814;9.798;2023-02-22T10:54:20;11.10;99.90
4655;DHT22;2340;47.814;9.798;2023-02-22T10:56:48;11.20;99.90
4655;DHT22;2340;47.814;9.798;2023-02-22T11:01:52;11.50;99.90
4655;DHT22;2340;47.814;9.798;2023-02-22T11:04:18;11.60;99.90
4655;DHT22;2340;47.814;9.798;2023-02-22T11:07:28;11.70;99.90
4655;DHT22;2340;47.814;9.798;2023-02-22T11:09:44;11.90;99.90
4655;DHT22;2340;47.814;9.798;2023-02-22T11:12:14;11.80;99.90
4655;DHT22;2340;47.814;9.798;2023-02-22T11:14:40;11.70;99.90
4655;DHT22;2340;47.814;9.798;2023-02-22T11:17:07;11.60;99.90
4655;DHT22;2340;47.814;9.798;2023-02-22T11:19:33;11.60;99.90
4655;DHT22;2340;47.814;9.798;2023-02-22T11:24:32;11.50;99.90
4655;DHT22;2340;47.814;9.798;2023-02-22T11:27:01;11.50;99.90
4655;DHT22;2340;47.814;9.798;2023-02-22T11:29:32;11.40;99.90
4655;DHT22;2340;47.814;9.798;2023-02-22T11:32:15;11.50;99.90
4655;DHT22;2340;47.814;9.798;2023-02-22T11:34:45;11.60;99.90
4655;DHT22;2340;47.814;9.798;2023-02-22T11:37:22;11.70;99.90
4655;DHT22;2340;47.814;9.798;2023-02-22T11:42:31;12.20;99.90
4655;DHT22;2340;47.814;9.798;2023-02-22T11:45:13;12.60;99.90
4655;DHT22;2340;47.814;9.798;2023-02-22T11:48:16;12.90;99.90
4655;DHT22;2340;47.814;9.798;2023-02-22T11:58:19;13.90;99.90
4655;DHT22;2340;47.814;9.798;2023-02-22T12:00:55;14.90;99.90
4655;DHT22;2340;47.814;9.798;2023-02-22T12:03:26;15.90;99.90
4655;DHT22;2340;47.814;9.798;2023-02-22T12:06:02;17.10;99.90
4655;DHT22;2340;47.814;9.798;2023-02-22T12:08:34;17.90;99.90
4655;DHT22;2340;47.814;9.798;2023-02-22T12:21:27;19.10;99.90
4655;DHT22;2340;47.814;9.798;2023-02-22T12:26:23;18.00;99.90
4655;DHT22;2340;47.814;9.798;2023-02-22T12:31:22;18.80;99.90
4655;DHT22;2340;47.814;9.798;2023-02-22T12:37:08;20.00;99.80
4655;DHT22;2340;47.814;9.798;2023-02-22T12:42:19;20.00;99.00
4655;DHT22;2340;47.814;9.798;2023-02-22T12:44:51;20.30;98.70
4655;DHT22;2340;47.814;9.798;2023-02-22T12:47:18;20.40;97.90
4655;DHT22;2340;47.814;9.798;2023-02-22T12:49:54;20.40;98.70
4655;DHT22;2340;47.814;9.798;2023-02-22T12:52:34;19.60;97.80
4655;DHT22;2340;47.814;9.798;2023-02-22T12:55:15;19.10;98.00
4655;DHT22;2340;47.814;9.798;2023-02-22T13:00:23;19.00;98.90
4655;DHT22;2340;47.814;9.798;2023-02-22T13:02:55;18.90;97.80
4655;DHT22;2340;47.814;9.798;2023-02-22T13:05:21;17.90;98.20
4655;DHT22;2340;47.814;9.798;2023-02-22T13:08:10;17.40;98.50
4655;DHT22;2340;47.814;9.798;2023-02-22T13:13:21;16.90;99.60
4655;DHT22;2340;47.814;9.798;2023-02-22T13:21:04;18.20;99.80
4655;DHT22;2340;47.814;9.798;2023-02-22T13:23:38;18.20;99.60
4655;DHT22;2340;47.814;9.798;2023-02-22T13:26:17;18.10;99.60
4655;DHT22;2340;47.814;9.798;2023-02-22T13:28:48;18.10;99.50
4655;DHT22;2340;47.814;9.798;2023-02-22T13:37:02;18.60;99.60
4655;DHT22;2340;47.814;9.798;2023-02-22T13:52:19;19.10;98.00
4655;DHT22;2340;47.814;9.798;2023-02-22T13:54:48;19.20;98.10
4655;DHT22;2340;47.814;9.798;2023-02-22T14:05:33;18.50;97.60
4655;DHT22;2340;47.814;9.798;2023-02-22T14:07:59;18.50;97.60
4655;DHT22;2340;47.814;9.798;2023-02-22T14:13:03;18.10;98.00
4655;DHT22;2340;47.814;9.798;2023-02-22T14:15:28;17.90;98.40
4655;DHT22;2340;47.814;9.798;2023-02-22T14:20:20;17.10;98.40
4655;DHT22;2340;47.814;9.798;2023-02-22T14:22:54;16.80;98.60
4655;DHT22;2340;47.814;9.798;2023-02-22T14:31:05;16.70;99.70
4655;DHT22;2340;47.814;9.798;2023-02-22T14:36:17;16.20;99.30
4655;DHT22;2340;47.814;9.798;2023-02-22T14:38:44;15.90;99.50
4655;DHT22;2340;47.814;9.798;2023-02-22T14:41:10;15.90;99.90
4655;DHT22;2340;47.814;9.798;2023-02-22T14:43:37;15.80;99.90
4655;DHT22;2340;47.814;9.798;2023-02-22T14:46:03;15.90;99.90
4655;DHT22;2340;47.814;9.798;2023-02-22T14:48:31;15.50;99.90
4655;DHT22;2340;47.814;9.798;2023-02-22T14:56:22;15.50;99.90
4655;DHT22;2340;47.814;9.798;2023-02-22T14:58:51;15.50;99.90
4655;DHT22;2340;47.814;9.798;2023-02-22T15:01:27;15.20;99.90
4655;DHT22;2340;47.814;9.798;2023-02-22T15:03:55;15.10;99.90
4655;DHT22;2340;47.814;9.798;2023-02-22T15:06:27;15.00;99.90
4655;DHT22;2340;47.814;9.798;2023-02-22T15:11:33;14.70;99.90
4655;DHT22;2340;47.814;9.798;2023-02-22T15:14:00;14.40;99.90
4655;DHT22;2340;47.814;9.798;2023-02-22T15:16:30;14.30;99.90
4655;DHT22;2340;47.814;9.798;2023-02-22T15:18:57;14.20;99.90
4655;DHT22;2340;47.814;9.798;2023-02-22T15:21:25;14.10;99.90
4655;DHT22;2340;47.814;9.798;2023-02-22T15:23:52;13.90;99.90
4655;DHT22;2340;47.814;9.798;2023-02-22T15:26:31;13.80;99.90
4655;DHT22;2340;47.814;9.798;2023-02-22T15:28:59;13.80;99.90
4655;DHT22;2340;47.814;9.798;2023-02-22T15:33:51;13.80;99.90
4655;DHT22;2340;47.814;9.798;2023-02-22T15:36:20;13.70;99.90
4655;DHT22;2340;47.814;9.798;2023-02-22T15:38:51;13.50;99.90
4655;DHT22;2340;47.814;9.798;2023-02-22T15:41:25;13.50;99.90
4655;DHT22;2340;47.814;9.798;2023-02-22T15:44:03;13.30;99.90
4655;DHT22;2340;47.814;9.798;2023-02-22T15:46:29;13.20;99.90
4655;DHT22;2340;47.814;9.798;2023-02-22T15:51:37;12.80;99.90
4655;DHT22;2340;47.814;9.798;2023-02-22T15:54:04;12.90;99.90
4655;DHT22;2340;47.814;9.798;2023-02-22T15:56:32;12.90;99.90
4655;DHT22;2340;47.814;9.798;2023-02-22T16:01:35;12.80;99.90
4655;DHT22;2340;47.814;9.798;2023-02-22T16:04:01;12.80;99.90
4655;DHT22;2340;47.814;9.798;2023-02-22T16:06:34;12.80;99.90
4655;DHT22;2340;47.814;9.798;2023-02-22T16:09:09;12.60;99.90
4655;DHT22;2340;47.814;9.798;2023-02-22T16:11:40;12.60;99.90
4655;DHT22;2340;47.814;9.798;2023-02-22T16:14:27;12.50;99.90
4655;DHT22;2340;47.814;9.798;2023-02-22T16:19:40;12.40;99.90
4655;DHT22;2340;47.814;9.798;2023-02-22T16:22:19;12.40;99.90
4655;DHT22;2340;47.814;9.798;2023-02-22T16:24:46;12.30;99.90
4655;DHT22;2340;47.814;9.798;2023-02-22T16:27:17;12.30;99.90
4655;DHT22;2340;47.814;9.798;2023-02-22T16:29:43;12.20;99.90
4655;DHT22;2340;47.814;9.798;2023-02-22T16:32:09;12.10;99.90
4655;DHT22;2340;47.814;9.798;2023-02-22T16:34:35;12.00;99.90
4655;DHT22;2340;47.814;9.798;2023-02-22T16:37:01;11.90;99.90
4655;DHT22;2340;47.814;9.798;2023-02-22T16:39:27;11.90;99.90
4655;DHT22;2340;47.814;9.798;2023-02-22T16:41:54;11.80;99.90
4655;DHT22;2340;47.814;9.798;2023-02-22T16:44:20;11.70;99.90
4655;DHT22;2340;47.814;9.798;2023-02-22T16:46:47;11.60;99.90
4655;DHT22;2340;47.814;9.798;2023-02-22T16:49:12;11.50;99.90
4655;DHT22;2340;47.814;9.798;2023-02-22T16:51:43;11.50;99.90
4655;DHT22;2340;47.814;9.798;2023-02-22T16:54:10;11.40;99.90
4655;DHT22;2340;47.814;9.798;2023-02-22T16:56:36;11.40;99.90
4655;DHT22;2340;47.814;9.798;2023-02-22T16:59:05;11.30;99.90
4655;DHT22;2340;47.814;9.798;2023-02-22T17:01:32;11.30;99.90
4655;DHT22;2340;47.814;9.798;2023-02-22T17:03:58;11.20;99.90
4655;DHT22;2340;47.814;9.798;2023-02-22T17:06:23;11.10;99.90
4655;DHT22;2340;47.814;9.798;2023-02-22T17:08:49;11.10;99.90
4655;DHT22;2340;47.814;9.798;2023-02-22T17:11:16;11.10;99.90
4655;DHT22;2340;47.814;9.798;2023-02-22T17:13:41;11.00;99.90
4655;DHT22;2340;47.814;9.798;2023-02-22T17:16:13;10.90;99.90
4655;DHT22;2340;47.814;9.798;2023-02-22T17:18:38;10.90;99.90
4655;DHT22;2340;47.814;9.798;2023-02-22T17:21:04;10.80;99.90
4655;DHT22;2340;47.814;9.798;2023-02-22T17:23:30;10.80;99.90
4655;DHT22;2340;47.814;9.798;2023-02-22T17:25:57;10.80;99.90
4655;DHT22;2340;47.814;9.798;2023-02-22T17:28:26;10.80;99.90
4655;DHT22;2340;47.814;9.798;2023-02-22T17:30:52;10.80;99.90
4655;DHT22;2340;47.814;9.798;2023-02-22T17:33:19;10.80;99.90
4655;DHT22;2340;47.814;9.798;2023-02-22T17:35:45;10.80;99.90
4655;DHT22;2340;47.814;9.798;2023-02-22T17:38:13;10.80;99.90
4655;DHT22;2340;47.814;9.798;2023-02-22T17:40:42;10.80;99.90
4655;DHT22;2340;47.814;9.798;2023-02-22T17:43:08;10.70;99.90
4655;DHT22;2340;47.814;9.798;2023-02-22T17:45:36;10.60;99.90
4655;DHT22;2340;47.814;9.798;2023-02-22T17:48:01;10.60;99.90
4655;DHT22;2340;47.814;9.798;2023-02-22T17:50:27;10.50;99.90
4655;DHT22;2340;47.814;9.798;2023-02-22T17:52:52;10.50;99.90
4655;DHT22;2340;47.814;9.798;2023-02-22T17:55:18;10.40;99.90
4655;DHT22;2340;47.814;9.798;2023-02-22T17:57:44;10.40;99.90
4655;DHT22;2340;47.814;9.798;2023-02-22T18:00:11;10.30;99.90
4655;DHT22;2340;47.814;9.798;2023-02-22T18:02:43;10.30;99.90
4655;DHT22;2340;47.814;9.798;2023-02-22T18:05:09;10.30;99.90
4655;DHT22;2340;47.814;9.798;2023-02-22T18:07:36;10.30;99.90
4655;DHT22;2340;47.814;9.798;2023-02-22T18:10:03;11.00;99.90
4655;DHT22;2340;47.814;9.798;2023-02-22T18:12:30;10.20;99.90
4655;DHT22;2340;47.814;9.798;2023-02-22T18:14:55;10.20;99.90
4655;DHT22;2340;47.814;9.798;2023-02-22T18:17:21;10.20;99.90
4655;DHT22;2340;47.814;9.798;2023-02-22T18:19:47;10.10;99.90
4655;DHT22;2340;47.814;9.798;2023-02-22T18:22:12;10.10;99.90
4655;DHT22;2340;47.814;9.798;2023-02-22T18:24:38;10.10;99.90
4655;DHT22;2340;47.814;9.798;2023-02-22T18:27:03;10.00;99.90
4655;DHT22;2340;47.814;9.798;2023-02-22T18:29:30;10.00;99.90
4655;DHT22;2340;47.814;9.798;2023-02-22T18:31:55;10.00;99.90
4655;DHT22;2340;47.814;9.798;2023-02-22T18:34:21;9.90;99.90
4655;DHT22;2340;47.814;9.798;2023-02-22T18:36:52;9.90;99.90
4655;DHT22;2340;47.814;9.798;2023-02-22T18:39:17;9.80;99.90
4655;DHT22;2340;47.814;9.798;2023-02-22T18:41:43;9.80;99.90
4655;DHT22;2340;47.814;9.798;2023-02-22T18:44:16;9.70;99.90
4655;DHT22;2340;47.814;9.798;2023-02-22T18:46:41;9.70;99.90
4655;DHT22;2340;47.814;9.798;2023-02-22T18:49:11;9.60;99.90
4655;DHT22;2340;47.814;9.798;2023-02-22T18:51:37;9.60;99.90
4655;DHT22;2340;47.814;9.798;2023-02-22T18:54:07;9.60;99.90
4655;DHT22;2340;47.814;9.798;2023-02-22T18:56:33;9.60;99.90
4655;DHT22;2340;47.814;9.798;2023-02-22T18:58:59;9.50;99.90
4655;DHT22;2340;47.814;9.798;2023-02-22T19:01:25;9.60;99.90